Time;durP1;ratioP1;P1;durP2;ratioP2;P2;SDS_P1;SDS_P2;PMS_P1;PMS_P2;Temp;Humidity;BMP_temperature;BMP_pressure;BME280_temperature;BME280_humidity;BME280_pressure;Samples;Min_cycle;Max_cycle;Signal;HPM_P1;HPM_P2
2021/12/24 00:02:00;;;;;;;5.22;3.80;;;;;;;14.96;53.29;97217.44;5113807;28;20034;-26
2021/12/24 00:04:26;;;;;;;7.25;4.15;;;;;;;14.91;53.70;97212.50;5106963;28;20024;-26
2021/12/24 00:06:53;;;;;;;7.68;4.22;;;;;;;14.92;53.57;97214.03;5094211;28;20024;-26
2021/12/24 00:09:25;;;;;;;7.05;4.25;;;;;;;14.96;53.38;97214.72;5102694;28;20120;-26
2021/12/24 00:11:56;;;;;;;5.60;4.07;;;;;;;14.87;53.90;97211.84;5111622;28;20393;-27
2021/12/24 00:14:23;;;;;;;5.57;4.28;;;;;;;14.86;54.24;97200.16;5114462;28;20927;-26
2021/12/24 00:16:53;;;;;;;6.38;4.50;;;;;;;14.89;53.95;97207.47;5105683;28;20529;-26
2021/12/24 00:22:54;;;;;;;7.18;4.32;;;;;;;14.90;53.90;97205.50;5073125;28;20052;-26
2021/12/24 00:36:03;;;;;;;5.57;4.05;;;;;;;14.87;53.70;97198.19;5093584;28;20543;-26
2021/12/24 00:38:28;;;;;;;5.88;4.25;;;;;;;14.87;53.78;97192.72;5093533;28;20107;-26
2021/12/24 00:40:57;;;;;;;6.38;4.65;;;;;;;14.81;54.40;97197.97;5093558;28;20466;-26
2021/12/24 00:43:23;;;;;;;5.65;4.53;;;;;;;14.78;54.27;97187.91;5093053;28;20028;-26
2021/12/24 00:45:51;;;;;;;7.72;4.55;;;;;;;14.82;54.66;97188.59;5094256;28;20054;-26
2021/12/24 00:48:19;;;;;;;9.40;4.28;;;;;;;14.72;54.78;97184.94;5095508;28;20362;-27
2021/12/24 00:56:16;;;;;;;6.15;4.30;;;;;;;14.74;54.88;97181.78;5057850;28;20064;-26
2021/12/24 00:58:43;;;;;;;6.32;4.07;;;;;;;14.72;55.21;97182.22;5095215;28;20028;-26
2021/12/24 01:01:11;;;;;;;6.25;3.90;;;;;;;14.79;54.86;97185.97;5095215;28;20020;-26
2021/12/24 01:03:37;;;;;;;6.00;3.67;;;;;;;14.81;54.76;97169.91;5095087;28;20032;-26
2021/12/24 01:06:03;;;;;;;5.22;3.80;;;;;;;14.72;55.16;97179.50;5094069;28;20039;-26
2021/12/24 01:08:29;;;;;;;6.03;3.80;;;;;;;14.66;55.30;97181.25;5095099;28;20385;-26
2021/12/24 01:10:58;;;;;;;5.18;4.00;;;;;;;14.73;54.97;97175.56;5095066;28;20039;-26
2021/12/24 01:13:25;;;;;;;5.93;3.35;;;;;;;14.77;54.89;97170.00;5094789;28;20467;-26
2021/12/24 01:16:02;;;;;;;7.85;4.00;;;;;;;14.78;54.69;97170.78;5093607;28;20034;-26
2021/12/24 01:26:19;;;;;;;3.03;2.67;;;;;;;14.82;54.01;97193.28;5094915;28;20024;-26
2021/12/24 01:44:37;;;;;;;5.57;2.80;;;;;;;14.83;54.19;97178.44;5094676;28;20497;-26
2021/12/24 01:47:07;;;;;;;4.25;2.78;;;;;;;14.80;54.34;97184.75;5094316;28;20032;-26
2021/12/24 01:49:33;;;;;;;3.78;2.85;;;;;;;14.81;54.23;97180.81;5094161;28;20039;-26
2021/12/24 01:51:59;;;;;;;4.95;2.47;;;;;;;14.76;54.27;97181.34;5094169;28;20461;-26
2021/12/24 01:54:26;;;;;;;3.35;2.40;;;;;;;14.78;54.33;97178.97;5094201;28;20024;-26
2021/12/24 01:56:52;;;;;;;3.95;2.20;;;;;;;14.76;54.99;97179.41;5093982;28;20047;-26
2021/12/24 01:59:20;;;;;;;6.13;2.80;;;;;;;14.74;54.66;97177.09;5094253;28;20466;-26
2021/12/24 02:01:47;;;;;;;4.47;2.67;;;;;;;14.67;55.14;97160.16;5092754;28;20023;-26
2021/12/24 02:04:14;;;;;;;4.75;2.30;;;;;;;14.70;54.72;97167.50;5093449;28;20024;-26
2021/12/24 02:06:41;;;;;;;3.72;2.15;;;;;;;14.74;54.48;97170.88;5093948;28;20031;-26
2021/12/24 02:09:07;;;;;;;3.13;1.90;;;;;;;14.69;55.01;97164.00;5093989;28;20020;-26
2021/12/24 02:11:37;;;;;;;2.17;1.80;;;;;;;14.71;54.42;97155.38;5093858;28;20081;-26
2021/12/24 02:14:05;;;;;;;2.63;1.80;;;;;;;14.76;54.55;97156.78;5093680;28;20027;-26
2021/12/24 02:30:15;;;;;;;3.00;1.70;;;;;;;14.62;55.67;97136.13;5093729;28;20023;-26
2021/12/24 02:32:42;;;;;;;2.28;1.90;;;;;;;14.61;55.70;97138.09;5093629;28;20024;-26
2021/12/24 02:35:09;;;;;;;3.20;1.80;;;;;;;14.59;55.96;97128.81;5093538;28;20036;-26
2021/12/24 02:37:35;;;;;;;1.50;1.27;;;;;;;14.63;55.46;97134.94;5093778;28;20020;-26
2021/12/24 02:40:00;;;;;;;5.10;1.73;;;;;;;14.62;55.13;97131.44;5093585;28;20108;-26
2021/12/24 02:42:26;;;;;;;4.30;1.73;;;;;;;14.56;56.09;97121.50;5093767;28;20488;-26
2021/12/24 02:44:52;;;;;;;4.65;1.83;;;;;;;14.66;54.98;97118.44;5091944;28;20020;-26
2021/12/24 02:55:06;;;;;;;2.67;1.42;;;;;;;14.57;55.60;97121.06;5093411;28;20047;-26
2021/12/24 02:57:34;;;;;;;2.42;1.25;;;;;;;14.59;55.87;97110.47;5092111;28;20457;-26
2021/12/24 03:00:05;;;;;;;2.08;1.60;;;;;;;14.62;55.43;97115.06;5093264;28;20028;-26
2021/12/24 03:02:31;;;;;;;3.25;1.73;;;;;;;14.60;55.47;97108.50;5093284;28;20469;-26
2021/12/24 03:04:57;;;;;;;2.30;1.45;;;;;;;14.59;55.90;97102.28;5092222;28;20024;-26
2021/12/24 03:07:23;;;;;;;1.73;1.20;;;;;;;14.58;55.74;97106.22;5093096;28;20028;-26
2021/12/24 03:09:49;;;;;;;2.15;1.40;;;;;;;14.56;55.89;97100.44;5093314;28;20012;-26
2021/12/24 03:12:14;;;;;;;2.15;1.48;;;;;;;14.62;55.58;97106.88;5093377;28;20454;-26
2021/12/24 03:14:40;;;;;;;2.25;1.40;;;;;;;14.59;55.65;97105.00;5093196;28;20016;-26
2021/12/24 03:17:10;;;;;;;1.50;1.20;;;;;;;14.60;55.75;97105.75;5096304;28;20484;-26
2021/12/24 03:19:36;;;;;;;2.50;1.45;;;;;;;14.61;55.79;97101.84;5097099;28;20020;-26
2021/12/24 03:24:47;;;;;;;2.25;1.27;;;;;;;14.57;56.06;97090.28;5097135;28;20034;-26
2021/12/24 03:27:15;;;;;;;2.10;1.17;;;;;;;14.60;56.02;97090.16;5096982;28;20028;-26
2021/12/24 03:29:40;;;;;;;2.30;1.30;;;;;;;14.46;56.61;97090.59;5097018;28;20020;-26
2021/12/24 03:32:06;;;;;;;3.70;1.40;;;;;;;14.53;56.78;97084.91;5096769;28;20439;-26
2021/12/24 03:34:32;;;;;;;3.65;1.10;;;;;;;14.50;56.76;97083.06;5096853;28;20389;-25
2021/12/24 03:36:58;;;;;;;3.90;1.50;;;;;;;14.45;56.55;97088.31;5097073;28;20024;-26
2021/12/24 03:39:23;;;;;;;2.85;1.10;;;;;;;14.48;56.26;97080.00;5096733;28;20530;-26
2021/12/24 03:41:49;;;;;;;3.80;1.20;;;;;;;14.58;56.26;97078.94;5096818;28;20473;-26
2021/12/24 03:44:17;;;;;;;4.10;1.50;;;;;;;14.57;56.28;97082.09;5096936;28;20031;-26
2021/12/24 03:52:03;;;;;;;3.60;1.50;;;;;;;14.50;56.54;97079.56;5096639;28;20026;-26
2021/12/24 03:57:15;;;;;;;3.65;2.05;;;;;;;14.39;57.20;97063.50;5096440;28;20107;-26
2021/12/24 03:59:41;;;;;;;4.07;1.33;;;;;;;14.46;56.93;97071.50;5096333;28;20052;-26
2021/12/24 04:02:07;;;;;;;2.83;1.50;;;;;;;14.53;56.69;97067.78;5096293;28;20024;-26
2021/12/24 04:04:32;;;;;;;2.85;1.42;;;;;;;14.60;56.22;97051.94;5096437;28;20404;-26
2021/12/24 04:06:58;;;;;;;4.45;1.58;;;;;;;14.44;56.96;97054.78;5096408;28;20028;-26
2021/12/24 04:09:25;;;;;;;3.15;1.30;;;;;;;14.42;57.18;97057.19;5096313;28;20020;-26
2021/12/24 04:11:50;;;;;;;2.72;1.23;;;;;;;14.32;57.84;97058.25;5096055;28;20035;-26
2021/12/24 04:14:16;;;;;;;3.40;1.23;;;;;;;14.41;57.60;97060.34;5096337;28;20019;-26
2021/12/24 04:16:41;;;;;;;3.80;1.30;;;;;;;14.40;57.40;97054.13;5096089;28;20111;-26
2021/12/24 04:24:53;;;;;;;2.03;1.20;;;;;;;14.54;57.26;97072.03;5073635;28;20031;-26
2021/12/24 04:27:21;;;;;;;1.77;1.13;;;;;;;14.52;57.32;97068.97;5073137;28;20617;-26
2021/12/24 04:29:47;;;;;;;2.10;1.23;;;;;;;14.49;56.98;97073.34;5073666;28;20025;-26
2021/12/24 04:32:17;;;;;;;2.03;1.20;;;;;;;14.51;56.70;97076.41;5073498;28;20039;-26
2021/12/24 04:34:46;;;;;;;3.05;1.40;;;;;;;14.51;57.43;97065.50;5073359;28;20024;-26
2021/12/24 04:38:03;;;;;;;2.70;1.50;;;;;;;14.45;57.52;97069.22;5073462;28;20029;-26
2021/12/24 05:03:54;;;;;;;2.42;1.00;;;;;;;14.46;58.33;97063.31;5095412;28;20377;-26
2021/12/24 05:11:13;;;;;;;2.08;1.00;;;;;;;14.54;57.03;97063.84;5095246;28;20036;-26
2021/12/24 05:13:39;;;;;;;2.95;1.20;;;;;;;14.45;58.00;97061.78;5094903;28;20130;-26
2021/12/24 05:16:17;;;;;;;2.05;1.00;;;;;;;14.44;57.56;97062.22;5094810;28;20484;-26
2021/12/24 05:21:33;;;;;;;2.35;1.00;;;;;;;14.47;57.77;97072.25;5095085;28;20024;-26
2021/12/24 05:21:42;;;;;;;2.50;0.95;;;;;;;14.33;58.68;97062.50;5094553;28;20046;-26
2021/12/24 05:24:15;;;;;;;1.88;1.02;;;;;;;14.34;58.38;97070.25;5095075;28;20432;-26
2021/12/24 05:26:44;;;;;;;2.78;1.20;;;;;;;14.31;58.33;97062.19;5083020;28;20097;-26
2021/12/24 05:29:13;;;;;;;3.28;0.98;;;;;;;14.49;57.86;97065.16;5072607;28;20024;-26
2021/12/24 05:31:38;;;;;;;3.67;0.93;;;;;;;14.46;58.21;97068.00;5072525;28;20054;-26
2021/12/24 05:34:04;;;;;;;2.50;1.20;;;;;;;14.43;58.19;97058.72;5072229;28;20457;-26
2021/12/24 05:36:30;;;;;;;1.73;1.05;;;;;;;14.44;58.10;97052.06;5072419;28;20108;-26
2021/12/24 05:38:56;;;;;;;2.33;1.38;;;;;;;14.45;57.54;97059.06;5071266;28;20029;-26
2021/12/24 05:41:22;;;;;;;2.30;1.10;;;;;;;14.38;58.00;97068.19;5072055;28;20414;-26
2021/12/24 05:43:49;;;;;;;2.42;1.25;;;;;;;14.38;58.17;97057.25;5072160;28;20112;-26
2021/12/24 05:46:15;;;;;;;1.85;1.02;;;;;;;14.49;57.47;97054.22;5072133;28;20024;-26
2021/12/24 05:48:40;;;;;;;2.35;1.20;;;;;;;14.45;58.06;97058.28;5071703;28;20056;-26
2021/12/24 05:51:06;;;;;;;1.95;1.13;;;;;;;14.46;57.99;97057.09;5071984;28;20035;-26
2021/12/24 05:53:32;;;;;;;2.88;1.02;;;;;;;14.48;57.77;97060.13;5071986;28;20043;-26
2021/12/24 05:55:57;;;;;;;1.92;1.30;;;;;;;14.50;57.53;97061.22;5072147;28;20102;-26
2021/12/24 05:58:23;;;;;;;2.30;1.23;;;;;;;14.45;57.86;97061.78;5071962;28;20020;-26
2021/12/24 06:00:49;;;;;;;2.60;1.48;;;;;;;14.49;57.39;97061.66;5071751;28;20039;-26
2021/12/24 06:03:16;;;;;;;2.78;1.10;;;;;;;14.39;58.13;97060.75;5069506;28;20025;-26
2021/12/24 06:05:42;;;;;;;1.80;1.10;;;;;;;14.43;58.26;97058.72;5071810;28;20123;-26
2021/12/24 06:08:09;;;;;;;1.63;1.00;;;;;;;14.36;58.34;97053.44;5071701;28;20043;-26
2021/12/24 06:10:35;;;;;;;1.98;1.00;;;;;;;14.37;57.99;97044.81;5071604;28;20103;-26
2021/12/24 06:13:03;;;;;;;6.50;3.50;;;;;;;14.47;57.77;97055.88;5071577;28;20490;-26
2021/12/24 06:15:28;;;;;;;4.20;2.17;;;;;;;14.49;57.28;97051.50;5070922;28;20035;-26
2021/12/24 06:17:57;;;;;;;4.32;2.33;;;;;;;14.45;57.33;97045.41;5071772;28;20099;-26
2021/12/24 06:20:25;;;;;;;2.92;1.90;;;;;;;14.45;57.39;97050.09;5071460;28;20060;-26
2021/12/24 06:22:51;;;;;;;4.78;2.05;;;;;;;14.40;57.97;97048.69;5071541;28;20036;-26
2021/12/24 06:25:17;;;;;;;4.28;1.73;;;;;;;14.33;58.05;97041.44;5071578;28;20032;-26
2021/12/24 06:27:44;;;;;;;4.70;1.67;;;;;;;14.37;58.18;97041.31;5090478;28;20081;-26
2021/12/24 06:30:11;;;;;;;2.67;1.70;;;;;;;14.43;57.65;97036.13;5091434;28;20028;-26
2021/12/24 06:32:37;;;;;;;3.33;1.60;;;;;;;14.43;57.60;97036.91;5091720;28;20038;-26
2021/12/24 06:35:04;;;;;;;2.47;1.75;;;;;;;14.44;57.69;97038.41;5091596;28;20036;-26
2021/12/24 06:37:30;;;;;;;2.22;1.70;;;;;;;14.38;57.91;97042.84;5091370;28;20106;-26
2021/12/24 06:39:55;;;;;;;3.13;1.60;;;;;;;14.28;58.65;97035.75;5091008;28;20505;-26
2021/12/24 06:42:22;;;;;;;2.00;1.48;;;;;;;14.31;58.50;97027.47;5091225;28;20058;-26
2021/12/24 06:44:48;;;;;;;5.35;1.75;;;;;;;14.33;58.31;97036.00;5091374;28;20028;-26
2021/12/24 06:47:13;;;;;;;3.45;1.75;;;;;;;14.36;58.48;97035.09;5091467;28;20063;-26
2021/12/24 06:49:39;;;;;;;2.75;1.50;;;;;;;14.36;58.30;97032.38;5090975;28;20071;-26
2021/12/24 06:52:05;;;;;;;3.30;1.45;;;;;;;14.39;58.22;97038.94;5091100;28;20382;-26
2021/12/24 06:54:33;;;;;;;1.80;1.10;;;;;;;14.31;58.40;97046.56;5089885;28;20393;-26
2021/12/24 06:57:02;;;;;;;2.42;1.08;;;;;;;14.31;58.89;97040.34;5091126;28;20077;-26
2021/12/24 06:59:28;;;;;;;2.72;1.30;;;;;;;14.22;58.80;97030.06;5091092;28;20016;-26
2021/12/24 07:01:54;;;;;;;2.00;1.30;;;;;;;14.32;58.78;97030.97;5089679;28;20053;-26
2021/12/24 07:04:19;;;;;;;3.95;1.90;;;;;;;14.24;59.43;97041.31;5091135;28;20023;-26
2021/12/24 07:06:45;;;;;;;2.70;1.58;;;;;;;14.14;59.80;97031.50;5091101;28;20094;-26
2021/12/24 07:09:15;;;;;;;5.35;1.75;;;;;;;14.21;59.69;97041.44;5091425;28;20024;-26
2021/12/24 07:11:41;;;;;;;2.92;1.40;;;;;;;14.08;60.21;97043.38;5091396;28;20043;-26
2021/12/24 07:14:08;;;;;;;2.55;1.30;;;;;;;14.24;59.95;97051.47;5089593;28;20052;-26
2021/12/24 07:16:34;;;;;;;3.28;1.55;;;;;;;14.33;59.49;97046.16;5091266;28;20024;-26
2021/12/24 07:18:59;;;;;;;2.28;1.52;;;;;;;14.26;59.77;97043.59;5091030;28;20498;-26
2021/12/24 07:21:25;;;;;;;3.17;1.40;;;;;;;14.20;60.11;97056.28;5091119;28;20074;-26
2021/12/24 07:23:50;;;;;;;4.32;1.52;;;;;;;14.26;59.82;97043.59;5091320;28;20389;-26
2021/12/24 07:26:16;;;;;;;2.95;1.60;;;;;;;14.31;59.32;97056.72;5091734;28;20054;-26
2021/12/24 07:28:41;;;;;;;3.45;1.27;;;;;;;14.33;59.30;97046.16;5092998;28;20069;-26
2021/12/24 07:31:07;;;;;;;4.18;1.90;;;;;;;14.28;59.57;97057.59;5093422;28;20331;-26
2021/12/24 07:33:32;;;;;;;4.88;2.30;;;;;;;14.26;59.36;97051.78;5093040;28;20454;-26
2021/12/24 07:35:58;;;;;;;4.43;2.80;;;;;;;14.37;59.27;97049.50;5091834;28;20113;-26
2021/12/24 07:38:24;;;;;;;6.05;3.10;;;;;;;14.33;58.94;97046.91;5092857;28;20428;-26
2021/12/24 07:40:50;;;;;;;7.82;3.88;;;;;;;14.24;59.67;97043.28;5092826;28;20028;-26
2021/12/24 07:43:15;;;;;;;9.05;4.30;;;;;;;14.30;59.40;97045.03;5092719;28;20024;-26
2021/12/24 07:45:42;;;;;;;8.18;4.38;;;;;;;14.37;59.02;97046.78;5092344;28;20466;-26
2021/12/24 07:48:13;;;;;;;8.32;4.30;;;;;;;14.26;59.66;97049.06;5092954;28;20427;-26
2021/12/24 07:53:11;;;;;;;12.95;5.85;;;;;;;14.28;59.79;97036.53;5092842;28;20496;-26
2021/12/24 07:55:38;;;;;;;8.52;5.20;;;;;;;14.34;59.12;97034.03;5092749;28;20020;-26
2021/12/24 07:58:05;;;;;;;8.90;5.07;;;;;;;14.35;59.54;97035.53;5092730;28;20030;-26
2021/12/24 08:00:31;;;;;;;9.43;5.07;;;;;;;14.38;59.24;97040.13;5092665;28;20048;-26
2021/12/24 08:02:58;;;;;;;7.80;4.70;;;;;;;14.36;59.23;97032.38;5093829;28;20059;-26
2021/12/24 08:05:25;;;;;;;9.45;4.70;;;;;;;14.35;58.94;97030.06;5096419;28;20089;-26
2021/12/24 08:07:53;;;;;;;9.32;4.47;;;;;;;14.35;59.60;97035.53;5096007;28;20020;-26
2021/12/24 08:10:19;;;;;;;6.68;4.03;;;;;;;14.26;59.83;97035.44;5095971;28;20026;-26
2021/12/24 08:12:45;;;;;;;6.03;4.13;;;;;;;14.20;60.78;97029.00;5095899;28;20039;-26
2021/12/24 08:15:11;;;;;;;6.20;3.78;;;;;;;14.24;59.78;97029.63;5095405;28;20040;-26
2021/12/24 08:17:37;;;;;;;5.45;3.10;;;;;;;14.22;60.58;97032.03;5095349;28;20028;-26
2021/12/24 08:20:12;;;;;;;5.65;3.90;;;;;;;14.17;60.87;97022.44;5095950;28;20032;-26
2021/12/24 08:22:38;;;;;;;7.78;3.53;;;;;;;14.23;60.33;97022.66;5095887;28;20024;-26
2021/12/24 08:25:08;;;;;;;6.53;3.45;;;;;;;14.35;59.71;97030.84;5095431;28;20422;-26
2021/12/24 08:27:34;;;;;;;5.80;3.30;;;;;;;14.19;60.61;97027.47;5095009;28;20451;-26
2021/12/24 08:30:04;;;;;;;5.53;3.55;;;;;;;14.29;60.46;97031.84;5095886;28;20027;-26
2021/12/24 08:32:29;;;;;;;6.97;3.38;;;;;;;14.29;60.05;97034.56;5094721;28;20060;-26
2021/12/24 08:34:55;;;;;;;7.95;3.67;;;;;;;14.44;59.55;97032.97;5095527;28;20027;-26
2021/12/24 08:37:23;;;;;;;5.95;2.78;;;;;;;14.44;59.08;97034.94;5094468;28;20020;-26
2021/12/24 08:39:49;;;;;;;7.07;3.08;;;;;;;14.41;59.29;97033.84;5095622;28;20024;-26
2021/12/24 08:42:16;;;;;;;9.73;3.58;;;;;;;14.21;60.23;97031.28;5095162;28;20093;-26
2021/12/24 08:44:42;;;;;;;6.50;3.05;;;;;;;14.33;59.94;97040.69;5095576;28;20055;-26
2021/12/24 08:47:07;;;;;;;5.43;3.08;;;;;;;14.34;59.90;97036.75;5093926;28;20050;-26
2021/12/24 08:49:33;;;;;;;6.18;3.00;;;;;;;14.43;59.29;97033.41;5095146;28;20443;-26
2021/12/24 08:51:59;;;;;;;6.38;3.83;;;;;;;14.42;59.06;97034.59;5095476;28;20027;-26
2021/12/24 08:54:25;;;;;;;6.57;3.17;;;;;;;14.44;59.28;97035.69;5093943;28;20024;-26
2021/12/24 08:56:55;;;;;;;5.10;2.88;;;;;;;14.31;59.58;97035.66;5095046;28;20043;-26
2021/12/24 08:59:22;;;;;;;7.25;3.65;;;;;;;14.23;60.47;97039.78;5094829;28;20032;-26
2021/12/24 09:01:48;;;;;;;6.40;3.70;;;;;;;14.22;60.34;97029.31;5095199;28;20027;-26
2021/12/24 09:04:14;;;;;;;6.95;3.85;;;;;;;14.29;60.25;97037.28;5094845;28;20028;-26
2021/12/24 09:06:40;;;;;;;9.07;4.20;;;;;;;14.45;59.23;97025.53;5093944;28;20051;-26
2021/12/24 09:09:07;;;;;;;6.85;4.35;;;;;;;14.32;60.11;97037.19;5095038;28;20027;-26
2021/12/24 09:11:34;;;;;;;10.02;4.68;;;;;;;14.29;60.36;97032.59;5095220;28;20028;-26
2021/12/24 09:14:00;;;;;;;8.13;5.00;;;;;;;14.33;59.58;97037.97;5094565;28;20023;-26
2021/12/24 09:16:25;;;;;;;8.20;4.60;;;;;;;14.39;59.69;97033.47;5093677;28;20379;-26
2021/12/24 09:18:59;;;;;;;8.48;4.68;;;;;;;14.34;60.23;97034.03;5094472;28;20020;-26
2021/12/24 09:21:25;;;;;;;8.23;4.72;;;;;;;14.32;59.92;97031.72;5094926;28;20028;-26
2021/12/24 09:23:50;;;;;;;8.05;4.35;;;;;;;14.32;60.33;97033.69;5091079;28;20032;-26
2021/12/24 09:26:23;;;;;;;9.43;4.18;;;;;;;14.32;60.46;97030.97;5093890;28;20038;-26
2021/12/24 09:28:49;;;;;;;6.35;3.70;;;;;;;14.38;60.44;97029.22;5094232;28;20024;-26
2021/12/24 09:31:14;;;;;;;6.38;4.78;;;;;;;14.31;60.42;97029.44;5094064;28;20085;-25
2021/12/24 09:33:41;;;;;;;9.15;4.25;;;;;;;14.37;60.38;97033.13;5094327;28;20068;-25
2021/12/24 09:36:07;;;;;;;9.57;4.90;;;;;;;14.24;60.83;97024.94;5094795;28;20048;-25
2021/12/24 09:38:32;;;;;;;6.60;4.30;;;;;;;14.35;60.53;97019.94;5094631;28;20062;-25
2021/12/24 09:40:58;;;;;;;10.38;4.85;;;;;;;14.23;61.57;97014.47;5094333;28;20044;-25
2021/12/24 09:43:25;;;;;;;7.75;5.00;;;;;;;14.19;61.80;97011.09;5094092;28;20047;-25
2021/12/24 09:45:50;;;;;;;10.32;5.47;;;;;;;14.26;61.59;97010.88;5093454;28;20032;-25
2021/12/24 09:48:17;;;;;;;9.40;4.72;;;;;;;14.31;61.18;97010.34;5093183;28;20038;-25
2021/12/24 09:50:42;;;;;;;10.60;4.88;;;;;;;14.33;61.21;97005.22;5093923;28;20093;-25
2021/12/24 09:53:08;;;;;;;9.63;6.03;;;;;;;14.33;60.73;97005.22;5094196;28;20031;-25
2021/12/24 09:55:34;;;;;;;11.23;6.57;;;;;;;14.30;61.00;97014.25;5094159;28;20385;-25
2021/12/24 09:58:00;;;;;;;12.45;6.90;;;;;;;14.33;60.73;97002.50;5101412;28;20031;-25
2021/12/24 10:00:26;;;;;;;12.05;6.80;;;;;;;14.17;61.86;96997.88;5094985;28;20032;-25
2021/12/24 10:02:55;;;;;;;11.98;6.55;;;;;;;14.23;61.75;96996.13;5092653;28;20019;-25
2021/12/24 10:05:28;;;;;;;8.88;6.43;;;;;;;14.23;61.42;96996.13;5095239;28;20084;-25
2021/12/24 10:08:19;;;;;;;11.07;5.93;;;;;;;14.13;62.18;96980.09;5114689;28;20024;-25
2021/12/24 10:10:47;;;;;;;12.05;5.55;;;;;;;14.25;61.71;96987.53;5114002;28;20045;-25
2021/12/24 10:13:31;;;;;;;8.60;5.15;;;;;;;14.31;61.40;96978.38;5114255;28;20430;-25
2021/12/24 10:16:04;;;;;;;8.55;5.03;;;;;;;14.27;61.60;96974.22;5114264;28;20023;-25
2021/12/24 10:18:39;;;;;;;7.65;4.57;;;;;;;14.33;61.23;96978.69;5114592;28;20031;-25
2021/12/24 10:21:13;;;;;;;8.68;4.80;;;;;;;14.42;60.57;96969.09;5114176;28;20032;-27
2021/12/24 10:23:38;;;;;;;;;;;;;;;14.43;60.66;96973.38;5114275;28;20094;-27
2021/12/24 10:26:12;;;;;;;6.43;4.03;;;;;;;14.46;60.17;96967.03;5113791;28;20049;-27
2021/12/24 10:28:37;;;;;;;8.02;4.03;;;;;;;14.31;60.99;96966.69;5112514;28;20484;-27
2021/12/24 10:31:03;;;;;;;5.57;4.18;;;;;;;14.37;60.88;96956.72;5114253;28;20024;-27
2021/12/24 10:33:28;;;;;;;6.20;3.78;;;;;;;14.19;61.96;96956.53;5113530;28;20024;-27
2021/12/24 10:36:02;;;;;;;6.82;3.53;;;;;;;14.37;60.95;96962.97;5113276;28;20484;-27
2021/12/24 10:38:28;;;;;;;8.95;4.13;;;;;;;14.44;60.77;96955.78;5113847;28;20098;-25
2021/12/24 10:41:04;;;;;;;4.85;3.15;;;;;;;14.22;62.33;96950.19;5113748;28;20106;-25
2021/12/24 10:43:35;;;;;;;7.85;3.47;;;;;;;14.15;62.05;96939.50;5113714;28;20510;-25
2021/12/24 10:46:17;;;;;;;8.57;3.55;;;;;;;14.27;61.65;96958.59;5113915;28;20027;-25
2021/12/24 10:49:14;;;;;;;8.55;3.75;;;;;;;14.20;62.07;96930.78;5113682;28;20027;-25
2021/12/24 10:55:08;;;;;;;6.38;3.78;;;;;;;14.34;61.63;96927.63;5029323;28;20468;-25
2021/12/24 10:57:38;;;;;;;7.03;3.83;;;;;;;14.30;61.51;96921.50;5011260;28;20064;-27
2021/12/24 11:00:25;;;;;;;6.25;3.63;;;;;;;14.47;60.51;96935.78;5014238;28;20392;-25
2021/12/24 11:02:58;;;;;;;7.13;3.55;;;;;;;14.23;61.53;96929.91;5011461;28;20041;-25
2021/12/24 11:05:38;;;;;;;6.47;3.65;;;;;;;14.26;61.55;96934.47;4994868;28;20052;-25
2021/12/24 11:08:07;;;;;;;7.55;3.80;;;;;;;14.25;61.40;96924.78;5011560;28;20125;-25
2021/12/24 11:10:37;;;;;;;5.43;3.45;;;;;;;14.24;61.63;96926.72;5011360;28;20029;-25
2021/12/24 11:13:18;;;;;;;6.85;3.95;;;;;;;14.25;61.57;96917.34;5011471;28;20033;-25
2021/12/24 11:15:47;;;;;;;8.15;3.85;;;;;;;14.31;61.47;96917.56;5011197;28;20080;-25
2021/12/24 11:18:21;;;;;;;9.45;3.40;;;;;;;14.23;61.94;96917.03;5011009;28;20116;-25
2021/12/24 11:20:53;;;;;;;7.05;3.67;;;;;;;14.32;61.47;96922.59;5010800;28;20197;-25
2021/12/24 11:23:20;;;;;;;8.50;4.45;;;;;;;14.19;62.67;96919.13;5011047;28;20408;-25
2021/12/24 11:25:50;;;;;;;8.98;4.80;;;;;;;14.22;62.78;96929.13;5011200;28;20029;-25
2021/12/24 11:28:16;;;;;;;13.57;6.05;;;;;;;14.11;63.64;96922.47;5032648;28;20040;-25
2021/12/24 11:30:45;;;;;;;9.90;4.50;;;;;;;14.24;62.70;96909.59;5072991;28;20034;-25
2021/12/24 11:33:16;;;;;;;7.40;4.35;;;;;;;14.30;62.35;96902.41;5072951;28;20025;-25
2021/12/24 11:35:43;;;;;;;8.95;4.43;;;;;;;14.26;62.58;96899.03;5073005;28;20032;-25
2021/12/24 11:38:14;;;;;;;12.60;4.55;;;;;;;14.37;62.09;96900.19;5073021;28;20024;-25
2021/12/24 11:40:39;;;;;;;6.82;4.47;;;;;;;14.21;62.77;96888.69;5076443;28;20387;-25
2021/12/24 11:43:05;;;;;;;8.55;5.15;;;;;;;14.38;61.80;96890.06;5083571;28;20027;-25
2021/12/24 11:45:33;;;;;;;10.63;4.65;;;;;;;14.40;61.85;96887.69;5094660;28;20040;-25
2021/12/24 11:48:00;;;;;;;8.88;4.88;;;;;;;14.35;61.87;96893.66;5093436;28;20107;-25
2021/12/24 11:50:26;;;;;;;13.32;5.63;;;;;;;14.41;61.84;96891.16;5094327;28;20044;-25
2021/12/24 11:52:55;;;;;;;14.82;5.30;;;;;;;14.26;62.77;96888.09;5094571;28;20055;-25
2021/12/24 11:55:23;;;;;;;14.75;6.20;;;;;;;14.25;62.79;96881.13;5094138;28;20023;-25
2021/12/24 11:57:53;;;;;;;12.75;5.47;;;;;;;14.33;62.00;96880.47;5094308;28;20020;-27
2021/12/24 12:00:33;;;;;;;14.65;5.07;;;;;;;14.29;62.47;96885.28;5093057;28;20050;-25
2021/12/24 12:02:59;;;;;;;13.45;5.60;;;;;;;14.36;62.37;96878.81;5093099;28;20024;-27
2021/12/24 12:05:35;;;;;;;11.55;4.63;;;;;;;14.46;61.39;96866.81;5092721;28;20470;-25
2021/12/24 12:08:25;;;;;;;8.63;4.43;;;;;;;14.41;61.42;96866.63;5092731;28;20390;-25
2021/12/24 12:11:04;;;;;;;10.15;5.28;;;;;;;14.22;62.72;96860.16;5094311;28;20453;-25
2021/12/24 12:14:04;;;;;;;8.73;4.45;;;;;;;14.32;62.85;96857.13;5093604;28;20028;-25
2021/12/24 12:16:32;;;;;;;12.98;6.80;;;;;;;14.23;63.11;96848.06;5050500;28;20093;-25
2021/12/24 12:19:20;;;;;;;12.43;5.82;;;;;;;14.31;62.45;96854.81;5092142;28;20478;-25
2021/12/24 12:22:20;;;;;;;10.00;5.25;;;;;;;14.15;63.35;96860.41;5093557;28;20031;-25
2021/12/24 12:24:59;;;;;;;11.38;6.10;;;;;;;14.32;63.20;96856.34;5094203;28;20103;-25
2021/12/24 12:27:27;;;;;;;8.68;5.20;;;;;;;14.36;62.63;96857.75;5094108;28;20421;-25
2021/12/24 12:29:52;;;;;;;12.30;5.93;;;;;;;14.31;63.35;96857.56;5094030;28;20115;-25
2021/12/24 12:32:17;;;;;;;10.63;5.97;;;;;;;14.34;62.82;96846.50;5093621;28;20098;-25
2021/12/24 12:34:43;;;;;;;14.23;6.75;;;;;;;14.30;63.04;96854.06;5093061;28;20054;-26
2021/12/24 12:37:11;;;;;;;15.93;7.60;;;;;;;14.40;62.54;96852.19;5093750;28;20034;-25
2021/12/24 12:39:37;;;;;;;14.95;7.53;;;;;;;14.40;62.62;96848.72;5093682;28;20032;-25
2021/12/24 12:42:03;;;;;;;14.13;7.25;;;;;;;14.33;63.03;96852.41;5093518;28;20038;-25
2021/12/24 12:44:30;;;;;;;17.38;7.43;;;;;;;14.39;62.80;96845.19;5093509;28;20032;-25
2021/12/24 12:47:10;;;;;;;17.02;8.30;;;;;;;14.35;63.08;96839.84;5092159;28;20028;-25
2021/12/24 12:49:36;;;;;;;15.05;7.38;;;;;;;14.36;63.10;96843.34;5091496;28;20044;-25
2021/12/24 12:52:07;;;;;;;10.30;6.93;;;;;;;14.45;62.02;96842.72;5093616;28;20023;-25
2021/12/24 12:54:37;;;;;;;14.23;7.68;;;;;;;14.34;62.87;96843.03;5093308;28;20482;-25
2021/12/24 12:57:14;;;;;;;12.40;6.28;;;;;;;14.31;62.83;96849.38;5093654;28;20036;-25
2021/12/24 13:00:00;;;;;;;10.15;5.95;;;;;;;14.24;63.92;96833.22;5092824;28;20032;-25
2021/12/24 13:05:33;;;;;;;11.07;5.93;;;;;;;14.43;62.43;96829.50;5030161;28;20033;-26
2021/12/24 13:08:11;;;;;;;12.00;6.40;;;;;;;14.44;62.01;96833.75;5030430;28;20459;-25
2021/12/24 13:10:37;;;;;;;11.85;5.65;;;;;;;14.34;62.55;96832.13;5030565;28;20037;-25
2021/12/24 13:13:05;;;;;;;11.70;5.90;;;;;;;14.45;62.16;96821.63;5030456;28;20067;-26
2021/12/24 13:15:33;;;;;;;13.38;5.88;;;;;;;14.38;62.57;96819.09;5013766;28;20084;-25
2021/12/24 13:18:05;;;;;;;8.55;5.35;;;;;;;14.36;62.56;96816.06;5028468;28;20723;-25
2021/12/24 13:20:55;;;;;;;10.25;5.32;;;;;;;14.34;63.10;96816.50;5030252;28;20037;-25
2021/12/24 13:23:22;;;;;;;10.45;5.70;;;;;;;14.36;62.66;96813.31;5030154;28;20042;-25
2021/12/24 13:25:47;;;;;;;10.70;5.38;;;;;;;14.38;62.68;96814.41;5030335;28;20045;-25
2021/12/24 13:28:13;;;;;;;8.02;4.90;;;;;;;14.41;62.13;96812.81;5030275;28;20120;-25
2021/12/24 13:30:39;;;;;;;10.50;5.25;;;;;;;14.45;62.22;96826.34;5029380;28;20048;-25
2021/12/24 13:33:07;;;;;;;6.68;4.15;;;;;;;14.33;62.94;96800.59;5029380;28;20029;-25
2021/12/24 13:35:42;;;;;;;10.13;4.70;;;;;;;14.41;62.45;96801.88;5042794;28;20048;-25
2021/12/24 13:38:16;;;;;;;8.70;4.60;;;;;;;14.47;61.96;96808.28;5092591;28;20027;-25